Pagrindinis puslapis
METAR-TAF:

METAR-TAF

Oro uostai :

Stokmarknes, Norvegija

platuma: 68-35N, ilguma: 015-01E, Aukštis: 0 m

Dabartinis oras

Ataskaita buvo paskelbta 42 minutes, ne 08:50 UTC
Vėjas 9 kt iš Šiaurės, svyruoja nuo Šiaurės/Šiaurės Vakarų ir Rytų/Šiaurės Rytų
Temperatūra 2°C
Drėgmė 69%
Slėgis 974 hPa
Matomumas 10 km arba daugiau
Išsisklaidę debesys ne aukštis 2000 ft
Su prošvaistėmis ne aukštis 3500 ft
Liūtis kaimynystėje

METAR: ENSK 180850Z 01009KT 330V060 9999 VCSH SCT020 BKN035 02/M03 Q0974

Laikas: 10:32 (09:32 UTC)


TAF: trūkstamas

Orai ataskaitas ir orų prognozės (METAR, TAF).

turimą stotys yra geltonos ir raudonos taškus žemėlapyje.

Perkelti pele per norėdami pamatyti stoties vardą.

Tada spustelėkite, norėdami matyti oro stebėjimo ir prognozės.

Norėdami pakeisti žemėlapį: spustelėkite ant žalios mygtukų su juodo kryžiaus žemyn,; žalią mygtuką su brūkšneliu, jei norite nutolinti; arba žalių rodyklių gretimoms žemėlapius.


METAR-TAF: